sensor_id;sensor_type;location;lat;lon;timestamp;P1;durP1;ratioP1;P2;durP2;ratioP2
69434;SDS011;56625;54.322;18.582;2023-05-01T00:01:37;9.20;;;3.10;;
69434;SDS011;56625;54.322;18.582;2023-05-01T00:04:04;13.10;;;3.10;;
69434;SDS011;56625;54.322;18.582;2023-05-01T00:06:33;8.80;;;2.40;;
69434;SDS011;56625;54.322;18.582;2023-05-01T00:09:01;7.20;;;2.30;;
69434;SDS011;56625;54.322;18.582;2023-05-01T00:11:29;9.80;;;2.50;;
69434;SDS011;56625;54.322;18.582;2023-05-01T00:13:57;12.40;;;2.90;;
69434;SDS011;56625;54.322;18.582;2023-05-01T00:16:24;9.10;;;2.80;;
69434;SDS011;56625;54.322;18.582;2023-05-01T00:18:52;11.90;;;3.70;;
69434;SDS011;56625;54.322;18.582;2023-05-01T00:21:21;9.90;;;2.90;;
69434;SDS011;56625;54.322;18.582;2023-05-01T00:23:49;7.70;;;2.40;;
69434;SDS011;56625;54.322;18.582;2023-05-01T00:26:17;10.60;;;2.80;;
69434;SDS011;56625;54.322;18.582;2023-05-01T00:28:45;8.20;;;2.60;;
69434;SDS011;56625;54.322;18.582;2023-05-01T00:31:12;8.90;;;2.50;;
69434;SDS011;56625;54.322;18.582;2023-05-01T00:33:40;10.30;;;2.50;;
69434;SDS011;56625;54.322;18.582;2023-05-01T00:36:08;9.80;;;2.60;;
69434;SDS011;56625;54.322;18.582;2023-05-01T00:38:37;8.90;;;2.50;;
69434;SDS011;56625;54.322;18.582;2023-05-01T00:41:04;8.10;;;2.50;;
69434;SDS011;56625;54.322;18.582;2023-05-01T00:43:32;11.20;;;3.30;;
69434;SDS011;56625;54.322;18.582;2023-05-01T00:46:00;12.00;;;3.50;;
69434;SDS011;56625;54.322;18.582;2023-05-01T00:48:28;13.70;;;3.00;;
69434;SDS011;56625;54.322;18.582;2023-05-01T00:50:57;9.80;;;3.00;;
69434;SDS011;56625;54.322;18.582;2023-05-01T00:53:27;10.20;;;3.10;;
69434;SDS011;56625;54.322;18.582;2023-05-01T00:55:57;10.20;;;3.00;;
69434;SDS011;56625;54.322;18.582;2023-05-01T00:58:25;9.20;;;2.60;;
69434;SDS011;56625;54.322;18.582;2023-05-01T01:00:54;9.10;;;2.70;;
69434;SDS011;56625;54.322;18.582;2023-05-01T01:03:22;8.60;;;1.80;;
69434;SDS011;56625;54.322;18.582;2023-05-01T01:05:53;8.70;;;1.90;;
69434;SDS011;56625;54.322;18.582;2023-05-01T01:08:55;8.10;;;2.60;;
69434;SDS011;56625;54.322;18.582;2023-05-01T01:11:45;9.90;;;3.10;;
69434;SDS011;56625;54.322;18.582;2023-05-01T01:14:27;8.50;;;2.80;;
69434;SDS011;56625;54.322;18.582;2023-05-01T01:20:34;12.40;;;3.40;;
69434;SDS011;56625;54.322;18.582;2023-05-01T01:23:42;10.30;;;3.00;;
69434;SDS011;56625;54.322;18.582;2023-05-01T01:26:47;8.30;;;2.50;;
69434;SDS011;56625;54.322;18.582;2023-05-01T01:35:25;9.70;;;3.00;;
69434;SDS011;56625;54.322;18.582;2023-05-01T01:38:05;10.90;;;2.90;;
69434;SDS011;56625;54.322;18.582;2023-05-01T01:41:05;6.90;;;1.80;;
69434;SDS011;56625;54.322;18.582;2023-05-01T01:43:43;8.40;;;2.60;;
69434;SDS011;56625;54.322;18.582;2023-05-01T01:46:21;7.00;;;1.90;;
69434;SDS011;56625;54.322;18.582;2023-05-01T01:48:51;7.90;;;2.20;;
69434;SDS011;56625;54.322;18.582;2023-05-01T01:51:23;9.20;;;2.70;;
69434;SDS011;56625;54.322;18.582;2023-05-01T01:53:55;10.00;;;2.60;;
69434;SDS011;56625;54.322;18.582;2023-05-01T01:56:28;9.60;;;2.20;;
69434;SDS011;56625;54.322;18.582;2023-05-01T01:59:00;12.90;;;2.50;;
69434;SDS011;56625;54.322;18.582;2023-05-01T02:01:32;9.20;;;2.90;;
69434;SDS011;56625;54.322;18.582;2023-05-01T02:04:02;9.60;;;2.60;;
69434;SDS011;56625;54.322;18.582;2023-05-01T02:06:32;8.00;;;2.60;;
69434;SDS011;56625;54.322;18.582;2023-05-01T02:09:03;8.50;;;2.60;;
69434;SDS011;56625;54.322;18.582;2023-05-01T02:11:34;9.20;;;2.40;;
69434;SDS011;56625;54.322;18.582;2023-05-01T02:14:04;6.80;;;2.00;;
69434;SDS011;56625;54.322;18.582;2023-05-01T02:16:35;9.90;;;2.70;;
69434;SDS011;56625;54.322;18.582;2023-05-01T02:19:04;9.00;;;2.60;;
69434;SDS011;56625;54.322;18.582;2023-05-01T02:21:34;9.00;;;2.40;;
69434;SDS011;56625;54.322;18.582;2023-05-01T02:24:04;7.90;;;2.40;;
69434;SDS011;56625;54.322;18.582;2023-05-01T02:26:40;13.40;;;2.60;;
69434;SDS011;56625;54.322;18.582;2023-05-01T02:29:10;11.70;;;2.70;;
69434;SDS011;56625;54.322;18.582;2023-05-01T02:31:38;8.40;;;2.30;;
69434;SDS011;56625;54.322;18.582;2023-05-01T02:34:06;9.60;;;2.60;;
69434;SDS011;56625;54.322;18.582;2023-05-01T02:36:34;15.60;;;3.30;;
69434;SDS011;56625;54.322;18.582;2023-05-01T02:39:01;7.50;;;2.10;;
69434;SDS011;56625;54.322;18.582;2023-05-01T02:41:31;7.20;;;2.50;;
69434;SDS011;56625;54.322;18.582;2023-05-01T02:44:03;10.70;;;2.20;;
69434;SDS011;56625;54.322;18.582;2023-05-01T02:46:35;8.10;;;2.40;;
69434;SDS011;56625;54.322;18.582;2023-05-01T02:49:05;12.10;;;2.70;;
69434;SDS011;56625;54.322;18.582;2023-05-01T02:51:34;8.40;;;2.80;;
69434;SDS011;56625;54.322;18.582;2023-05-01T02:54:03;9.10;;;2.60;;
69434;SDS011;56625;54.322;18.582;2023-05-01T02:56:31;6.90;;;1.90;;
69434;SDS011;56625;54.322;18.582;2023-05-01T02:58:59;8.70;;;2.10;;
69434;SDS011;56625;54.322;18.582;2023-05-01T03:01:27;7.30;;;2.20;;
69434;SDS011;56625;54.322;18.582;2023-05-01T03:03:55;7.30;;;2.10;;
69434;SDS011;56625;54.322;18.582;2023-05-01T03:06:23;9.20;;;2.10;;
69434;SDS011;56625;54.322;18.582;2023-05-01T03:08:51;8.00;;;2.00;;
69434;SDS011;56625;54.322;18.582;2023-05-01T03:11:18;8.10;;;2.00;;
69434;SDS011;56625;54.322;18.582;2023-05-01T03:13:47;7.10;;;2.00;;
69434;SDS011;56625;54.322;18.582;2023-05-01T03:16:15;9.30;;;2.70;;
69434;SDS011;56625;54.322;18.582;2023-05-01T03:18:43;7.90;;;2.10;;
69434;SDS011;56625;54.322;18.582;2023-05-01T03:21:11;8.20;;;2.40;;
69434;SDS011;56625;54.322;18.582;2023-05-01T03:23:39;8.60;;;2.50;;
69434;SDS011;56625;54.322;18.582;2023-05-01T03:26:07;9.30;;;2.20;;
69434;SDS011;56625;54.322;18.582;2023-05-01T03:28:35;10.40;;;2.80;;
69434;SDS011;56625;54.322;18.582;2023-05-01T03:31:02;11.10;;;2.60;;
69434;SDS011;56625;54.322;18.582;2023-05-01T03:33:31;12.60;;;2.80;;
69434;SDS011;56625;54.322;18.582;2023-05-01T03:36:03;8.40;;;2.40;;
69434;SDS011;56625;54.322;18.582;2023-05-01T03:38:32;9.60;;;2.60;;
69434;SDS011;56625;54.322;18.582;2023-05-01T03:41:00;9.10;;;2.10;;
69434;SDS011;56625;54.322;18.582;2023-05-01T03:43:27;8.70;;;2.50;;
69434;SDS011;56625;54.322;18.582;2023-05-01T03:45:55;10.00;;;2.60;;
69434;SDS011;56625;54.322;18.582;2023-05-01T03:48:24;8.30;;;2.30;;
69434;SDS011;56625;54.322;18.582;2023-05-01T03:50:52;9.10;;;2.90;;
69434;SDS011;56625;54.322;18.582;2023-05-01T03:53:19;8.00;;;2.40;;
69434;SDS011;56625;54.322;18.582;2023-05-01T03:55:47;9.20;;;2.60;;
69434;SDS011;56625;54.322;18.582;2023-05-01T03:58:15;7.90;;;2.20;;
69434;SDS011;56625;54.322;18.582;2023-05-01T04:00:43;10.00;;;2.50;;
69434;SDS011;56625;54.322;18.582;2023-05-01T04:03:11;7.10;;;2.30;;
69434;SDS011;56625;54.322;18.582;2023-05-01T04:05:39;9.50;;;2.40;;
69434;SDS011;56625;54.322;18.582;2023-05-01T04:08:07;8.50;;;2.30;;
69434;SDS011;56625;54.322;18.582;2023-05-01T04:10:35;8.00;;;2.60;;
69434;SDS011;56625;54.322;18.582;2023-05-01T04:13:03;10.80;;;2.70;;
69434;SDS011;56625;54.322;18.582;2023-05-01T04:15:31;8.60;;;2.40;;
69434;SDS011;56625;54.322;18.582;2023-05-01T04:17:59;8.70;;;2.50;;
69434;SDS011;56625;54.322;18.582;2023-05-01T04:20:27;10.40;;;2.30;;
69434;SDS011;56625;54.322;18.582;2023-05-01T04:22:55;8.00;;;2.20;;
69434;SDS011;56625;54.322;18.582;2023-05-01T04:25:23;8.20;;;2.20;;
69434;SDS011;56625;54.322;18.582;2023-05-01T04:27:50;8.30;;;2.30;;
69434;SDS011;56625;54.322;18.582;2023-05-01T04:30:18;8.20;;;2.20;;
69434;SDS011;56625;54.322;18.582;2023-05-01T04:32:46;9.20;;;2.30;;
69434;SDS011;56625;54.322;18.582;2023-05-01T04:35:14;8.20;;;2.40;;
69434;SDS011;56625;54.322;18.582;2023-05-01T04:37:42;8.10;;;2.30;;
69434;SDS011;56625;54.322;18.582;2023-05-01T04:40:11;9.50;;;2.30;;
69434;SDS011;56625;54.322;18.582;2023-05-01T04:42:39;9.30;;;2.40;;
69434;SDS011;56625;54.322;18.582;2023-05-01T04:45:07;8.80;;;2.20;;
69434;SDS011;56625;54.322;18.582;2023-05-01T04:47:35;7.20;;;2.20;;
69434;SDS011;56625;54.322;18.582;2023-05-01T04:50:03;7.80;;;2.50;;
69434;SDS011;56625;54.322;18.582;2023-05-01T04:52:32;10.90;;;2.70;;
69434;SDS011;56625;54.322;18.582;2023-05-01T04:55:00;10.60;;;2.40;;
69434;SDS011;56625;54.322;18.582;2023-05-01T04:57:28;7.80;;;2.30;;
69434;SDS011;56625;54.322;18.582;2023-05-01T04:59:56;8.40;;;2.50;;
69434;SDS011;56625;54.322;18.582;2023-05-01T05:02:25;7.30;;;2.10;;
69434;SDS011;56625;54.322;18.582;2023-05-01T05:04:53;10.60;;;2.60;;
69434;SDS011;56625;54.322;18.582;2023-05-01T05:07:21;8.70;;;2.40;;
69434;SDS011;56625;54.322;18.582;2023-05-01T05:09:50;7.80;;;2.20;;
69434;SDS011;56625;54.322;18.582;2023-05-01T05:12:18;8.70;;;2.40;;
69434;SDS011;56625;54.322;18.582;2023-05-01T05:14:45;7.30;;;1.90;;
69434;SDS011;56625;54.322;18.582;2023-05-01T05:17:14;9.30;;;2.50;;
69434;SDS011;56625;54.322;18.582;2023-05-01T05:19:42;7.90;;;2.10;;
69434;SDS011;56625;54.322;18.582;2023-05-01T05:22:10;7.60;;;2.50;;
69434;SDS011;56625;54.322;18.582;2023-05-01T05:24:39;9.10;;;2.40;;
69434;SDS011;56625;54.322;18.582;2023-05-01T05:27:06;7.00;;;2.10;;
69434;SDS011;56625;54.322;18.582;2023-05-01T05:29:34;8.30;;;2.00;;
69434;SDS011;56625;54.322;18.582;2023-05-01T05:32:03;12.10;;;2.30;;
69434;SDS011;56625;54.322;18.582;2023-05-01T05:34:31;7.60;;;2.10;;
69434;SDS011;56625;54.322;18.582;2023-05-01T05:36:59;8.70;;;2.20;;
69434;SDS011;56625;54.322;18.582;2023-05-01T05:39:28;7.30;;;2.00;;
69434;SDS011;56625;54.322;18.582;2023-05-01T05:41:57;11.00;;;2.60;;
69434;SDS011;56625;54.322;18.582;2023-05-01T05:44:25;7.40;;;1.80;;
69434;SDS011;56625;54.322;18.582;2023-05-01T05:46:53;7.50;;;2.10;;
69434;SDS011;56625;54.322;18.582;2023-05-01T05:49:21;6.70;;;1.90;;
69434;SDS011;56625;54.322;18.582;2023-05-01T05:51:49;8.90;;;2.00;;
69434;SDS011;56625;54.322;18.582;2023-05-01T05:54:16;6.70;;;2.00;;
69434;SDS011;56625;54.322;18.582;2023-05-01T05:56:44;7.90;;;1.80;;
69434;SDS011;56625;54.322;18.582;2023-05-01T05:59:12;9.00;;;1.80;;
69434;SDS011;56625;54.322;18.582;2023-05-01T06:01:43;4.80;;;1.10;;
69434;SDS011;56625;54.322;18.582;2023-05-01T06:04:11;6.80;;;1.30;;
69434;SDS011;56625;54.322;18.582;2023-05-01T06:06:41;6.70;;;1.50;;
69434;SDS011;56625;54.322;18.582;2023-05-01T06:09:09;4.00;;;0.80;;
69434;SDS011;56625;54.322;18.582;2023-05-01T06:11:39;8.30;;;1.40;;
69434;SDS011;56625;54.322;18.582;2023-05-01T06:14:07;8.90;;;1.70;;
69434;SDS011;56625;54.322;18.582;2023-05-01T06:16:36;6.00;;;1.00;;
69434;SDS011;56625;54.322;18.582;2023-05-01T06:19:05;5.60;;;1.30;;
69434;SDS011;56625;54.322;18.582;2023-05-01T06:21:34;6.10;;;1.40;;
69434;SDS011;56625;54.322;18.582;2023-05-01T06:24:03;5.10;;;1.20;;
69434;SDS011;56625;54.322;18.582;2023-05-01T06:26:31;6.70;;;1.30;;
69434;SDS011;56625;54.322;18.582;2023-05-01T06:28:59;8.90;;;1.30;;
69434;SDS011;56625;54.322;18.582;2023-05-01T06:31:27;6.00;;;1.20;;
69434;SDS011;56625;54.322;18.582;2023-05-01T06:33:55;8.10;;;1.60;;
69434;SDS011;56625;54.322;18.582;2023-05-01T06:36:23;5.90;;;0.80;;
69434;SDS011;56625;54.322;18.582;2023-05-01T06:38:51;7.50;;;1.70;;
69434;SDS011;56625;54.322;18.582;2023-05-01T06:41:18;7.40;;;1.10;;
69434;SDS011;56625;54.322;18.582;2023-05-01T06:43:48;5.00;;;1.30;;
69434;SDS011;56625;54.322;18.582;2023-05-01T06:46:16;6.10;;;1.10;;
69434;SDS011;56625;54.322;18.582;2023-05-01T06:48:44;7.90;;;1.30;;
69434;SDS011;56625;54.322;18.582;2023-05-01T06:51:12;4.50;;;1.00;;
69434;SDS011;56625;54.322;18.582;2023-05-01T06:53:42;4.40;;;0.70;;
69434;SDS011;56625;54.322;18.582;2023-05-01T06:56:10;6.30;;;1.00;;
69434;SDS011;56625;54.322;18.582;2023-05-01T06:58:38;5.50;;;1.00;;
69434;SDS011;56625;54.322;18.582;2023-05-01T07:01:06;4.70;;;0.90;;
69434;SDS011;56625;54.322;18.582;2023-05-01T07:03:34;6.20;;;1.20;;
69434;SDS011;56625;54.322;18.582;2023-05-01T07:06:02;6.70;;;1.00;;
69434;SDS011;56625;54.322;18.582;2023-05-01T07:08:30;7.00;;;1.20;;
69434;SDS011;56625;54.322;18.582;2023-05-01T07:10:58;5.40;;;1.40;;
69434;SDS011;56625;54.322;18.582;2023-05-01T07:13:26;4.10;;;0.60;;
69434;SDS011;56625;54.322;18.582;2023-05-01T07:15:54;5.40;;;1.30;;
69434;SDS011;56625;54.322;18.582;2023-05-01T07:18:22;5.20;;;0.90;;
69434;SDS011;56625;54.322;18.582;2023-05-01T07:20:50;8.00;;;1.40;;
69434;SDS011;56625;54.322;18.582;2023-05-01T07:23:19;5.40;;;1.00;;
69434;SDS011;56625;54.322;18.582;2023-05-01T07:25:47;8.70;;;1.40;;
69434;SDS011;56625;54.322;18.582;2023-05-01T07:28:15;5.50;;;1.00;;
69434;SDS011;56625;54.322;18.582;2023-05-01T07:30:44;6.30;;;1.20;;
69434;SDS011;56625;54.322;18.582;2023-05-01T07:33:12;6.20;;;1.40;;
69434;SDS011;56625;54.322;18.582;2023-05-01T07:35:40;5.90;;;1.30;;
69434;SDS011;56625;54.322;18.582;2023-05-01T07:38:09;6.30;;;0.90;;
69434;SDS011;56625;54.322;18.582;2023-05-01T07:40:37;5.40;;;1.20;;
69434;SDS011;56625;54.322;18.582;2023-05-01T07:43:05;6.20;;;1.20;;
69434;SDS011;56625;54.322;18.582;2023-05-01T07:45:33;4.00;;;0.80;;
69434;SDS011;56625;54.322;18.582;2023-05-01T07:48:01;8.80;;;1.60;;
69434;SDS011;56625;54.322;18.582;2023-05-01T07:50:29;5.90;;;0.90;;
69434;SDS011;56625;54.322;18.582;2023-05-01T07:52:58;7.10;;;1.30;;
69434;SDS011;56625;54.322;18.582;2023-05-01T07:55:26;6.70;;;1.50;;
69434;SDS011;56625;54.322;18.582;2023-05-01T07:57:54;6.40;;;1.60;;
69434;SDS011;56625;54.322;18.582;2023-05-01T08:00:22;8.50;;;1.90;;
69434;SDS011;56625;54.322;18.582;2023-05-01T08:02:51;5.20;;;1.50;;
69434;SDS011;56625;54.322;18.582;2023-05-01T08:05:19;7.40;;;1.80;;
69434;SDS011;56625;54.322;18.582;2023-05-01T08:07:46;6.90;;;1.30;;
69434;SDS011;56625;54.322;18.582;2023-05-01T08:10:15;8.00;;;1.50;;
69434;SDS011;56625;54.322;18.582;2023-05-01T08:12:43;5.90;;;1.30;;
69434;SDS011;56625;54.322;18.582;2023-05-01T08:15:11;6.50;;;1.70;;
69434;SDS011;56625;54.322;18.582;2023-05-01T08:17:38;4.40;;;0.90;;
69434;SDS011;56625;54.322;18.582;2023-05-01T08:20:07;5.30;;;1.30;;
69434;SDS011;56625;54.322;18.582;2023-05-01T08:22:35;5.80;;;1.40;;
69434;SDS011;56625;54.322;18.582;2023-05-01T08:25:04;6.40;;;1.50;;
69434;SDS011;56625;54.322;18.582;2023-05-01T08:27:32;6.90;;;1.10;;
69434;SDS011;56625;54.322;18.582;2023-05-01T08:30:00;8.20;;;1.70;;
69434;SDS011;56625;54.322;18.582;2023-05-01T08:32:28;9.70;;;1.50;;
69434;SDS011;56625;54.322;18.582;2023-05-01T08:34:56;7.80;;;1.70;;
69434;SDS011;56625;54.322;18.582;2023-05-01T08:37:24;9.80;;;1.60;;
69434;SDS011;56625;54.322;18.582;2023-05-01T08:39:52;5.10;;;1.10;;
69434;SDS011;56625;54.322;18.582;2023-05-01T08:42:21;11.00;;;1.80;;
69434;SDS011;56625;54.322;18.582;2023-05-01T08:44:55;9.00;;;1.90;;
69434;SDS011;56625;54.322;18.582;2023-05-01T08:47:26;8.90;;;1.60;;
69434;SDS011;56625;54.322;18.582;2023-05-01T08:49:58;7.60;;;1.70;;
69434;SDS011;56625;54.322;18.582;2023-05-01T08:52:27;8.80;;;1.50;;
69434;SDS011;56625;54.322;18.582;2023-05-01T08:54:58;7.00;;;1.60;;
69434;SDS011;56625;54.322;18.582;2023-05-01T08:57:29;6.40;;;1.80;;
69434;SDS011;56625;54.322;18.582;2023-05-01T09:00:00;5.70;;;1.40;;
69434;SDS011;56625;54.322;18.582;2023-05-01T09:02:33;6.50;;;1.40;;
69434;SDS011;56625;54.322;18.582;2023-05-01T09:05:02;7.00;;;1.70;;
69434;SDS011;56625;54.322;18.582;2023-05-01T09:07:36;6.70;;;1.60;;
69434;SDS011;56625;54.322;18.582;2023-05-01T09:10:06;9.90;;;1.60;;
69434;SDS011;56625;54.322;18.582;2023-05-01T09:12:34;9.50;;;1.60;;
69434;SDS011;56625;54.322;18.582;2023-05-01T09:15:03;6.30;;;1.00;;
69434;SDS011;56625;54.322;18.582;2023-05-01T09:17:34;9.50;;;2.10;;
69434;SDS011;56625;54.322;18.582;2023-05-01T09:20:04;7.00;;;1.70;;
69434;SDS011;56625;54.322;18.582;2023-05-01T09:22:33;6.30;;;1.90;;
69434;SDS011;56625;54.322;18.582;2023-05-01T09:25:01;7.70;;;1.60;;
69434;SDS011;56625;54.322;18.582;2023-05-01T09:27:35;9.10;;;2.10;;
69434;SDS011;56625;54.322;18.582;2023-05-01T09:30:05;4.90;;;1.20;;
69434;SDS011;56625;54.322;18.582;2023-05-01T09:32:34;6.30;;;1.20;;
69434;SDS011;56625;54.322;18.582;2023-05-01T09:35:13;7.50;;;1.70;;
69434;SDS011;56625;54.322;18.582;2023-05-01T09:37:42;5.20;;;1.40;;
69434;SDS011;56625;54.322;18.582;2023-05-01T09:40:16;6.80;;;1.30;;
69434;SDS011;56625;54.322;18.582;2023-05-01T09:42:50;4.70;;;1.00;;
69434;SDS011;56625;54.322;18.582;2023-05-01T09:45:19;8.10;;;1.70;;
69434;SDS011;56625;54.322;18.582;2023-05-01T09:47:48;7.10;;;1.10;;
69434;SDS011;56625;54.322;18.582;2023-05-01T09:50:32;7.80;;;1.50;;
69434;SDS011;56625;54.322;18.582;2023-05-01T09:53:03;7.70;;;1.20;;
69434;SDS011;56625;54.322;18.582;2023-05-01T09:55:33;6.30;;;1.20;;
69434;SDS011;56625;54.322;18.582;2023-05-01T09:58:02;6.20;;;1.50;;
69434;SDS011;56625;54.322;18.582;2023-05-01T10:00:36;7.00;;;1.20;;
69434;SDS011;56625;54.322;18.582;2023-05-01T10:03:14;4.10;;;0.80;;
69434;SDS011;56625;54.322;18.582;2023-05-01T10:05:43;7.60;;;1.00;;
69434;SDS011;56625;54.322;18.582;2023-05-01T10:08:11;5.60;;;1.40;;
69434;SDS011;56625;54.322;18.582;2023-05-01T10:10:43;7.00;;;1.00;;
69434;SDS011;56625;54.322;18.582;2023-05-01T10:15:41;4.30;;;0.90;;
69434;SDS011;56625;54.322;18.582;2023-05-01T10:18:11;5.70;;;1.20;;
69434;SDS011;56625;54.322;18.582;2023-05-01T10:20:41;8.80;;;1.40;;
69434;SDS011;56625;54.322;18.582;2023-05-01T10:23:09;5.70;;;1.50;;
69434;SDS011;56625;54.322;18.582;2023-05-01T10:25:40;7.10;;;1.00;;
69434;SDS011;56625;54.322;18.582;2023-05-01T10:28:09;6.70;;;1.20;;
69434;SDS011;56625;54.322;18.582;2023-05-01T10:30:40;6.40;;;1.10;;
69434;SDS011;56625;54.322;18.582;2023-05-01T10:33:12;5.90;;;1.20;;
69434;SDS011;56625;54.322;18.582;2023-05-01T10:35:44;6.30;;;1.30;;
69434;SDS011;56625;54.322;18.582;2023-05-01T10:38:21;4.90;;;0.60;;
69434;SDS011;56625;54.322;18.582;2023-05-01T10:40:53;5.60;;;1.40;;
69434;SDS011;56625;54.322;18.582;2023-05-01T10:43:30;4.70;;;1.00;;
69434;SDS011;56625;54.322;18.582;2023-05-01T10:51:25;6.20;;;1.40;;
69434;SDS011;56625;54.322;18.582;2023-05-01T10:56:41;7.80;;;1.50;;
69434;SDS011;56625;54.322;18.582;2023-05-01T10:59:10;7.70;;;1.60;;
69434;SDS011;56625;54.322;18.582;2023-05-01T11:01:40;7.80;;;1.40;;
69434;SDS011;56625;54.322;18.582;2023-05-01T11:15:29;7.40;;;2.20;;
69434;SDS011;56625;54.322;18.582;2023-05-01T11:18:00;6.50;;;1.40;;
69434;SDS011;56625;54.322;18.582;2023-05-01T11:23:03;6.00;;;1.50;;
69434;SDS011;56625;54.322;18.582;2023-05-01T11:25:30;6.60;;;1.40;;
69434;SDS011;56625;54.322;18.582;2023-05-01T11:28:01;7.40;;;1.90;;
69434;SDS011;56625;54.322;18.582;2023-05-01T11:30:37;6.70;;;1.50;;
69434;SDS011;56625;54.322;18.582;2023-05-01T11:33:06;6.90;;;1.50;;
69434;SDS011;56625;54.322;18.582;2023-05-01T11:35:37;6.50;;;1.90;;
69434;SDS011;56625;54.322;18.582;2023-05-01T11:38:15;5.80;;;1.30;;
69434;SDS011;56625;54.322;18.582;2023-05-01T11:40:53;6.10;;;1.50;;
69434;SDS011;56625;54.322;18.582;2023-05-01T11:43:22;5.70;;;1.40;;
69434;SDS011;56625;54.322;18.582;2023-05-01T11:45:51;6.10;;;1.40;;
69434;SDS011;56625;54.322;18.582;2023-05-01T11:48:29;6.20;;;1.40;;
69434;SDS011;56625;54.322;18.582;2023-05-01T11:50:58;6.70;;;1.70;;
69434;SDS011;56625;54.322;18.582;2023-05-01T11:53:26;5.40;;;1.50;;
69434;SDS011;56625;54.322;18.582;2023-05-01T11:55:54;8.20;;;1.40;;
69434;SDS011;56625;54.322;18.582;2023-05-01T11:58:32;5.40;;;1.30;;
69434;SDS011;56625;54.322;18.582;2023-05-01T12:01:00;6.00;;;1.40;;
69434;SDS011;56625;54.322;18.582;2023-05-01T12:03:39;5.70;;;1.40;;
69434;SDS011;56625;54.322;18.582;2023-05-01T12:06:10;5.20;;;1.30;;
69434;SDS011;56625;54.322;18.582;2023-05-01T12:08:46;5.00;;;1.50;;
69434;SDS011;56625;54.322;18.582;2023-05-01T12:11:17;5.40;;;1.30;;
69434;SDS011;56625;54.322;18.582;2023-05-01T12:13:48;5.50;;;1.30;;
69434;SDS011;56625;54.322;18.582;2023-05-01T12:16:16;6.10;;;1.40;;
69434;SDS011;56625;54.322;18.582;2023-05-01T12:18:45;5.00;;;1.30;;
69434;SDS011;56625;54.322;18.582;2023-05-01T12:21:16;8.20;;;1.40;;
69434;SDS011;56625;54.322;18.582;2023-05-01T12:23:44;6.10;;;1.30;;
69434;SDS011;56625;54.322;18.582;2023-05-01T12:26:16;6.80;;;1.60;;
69434;SDS011;56625;54.322;18.582;2023-05-01T12:29:05;5.60;;;1.40;;
69434;SDS011;56625;54.322;18.582;2023-05-01T12:31:48;4.10;;;1.10;;
69434;SDS011;56625;54.322;18.582;2023-05-01T12:34:16;4.90;;;1.30;;
69434;SDS011;56625;54.322;18.582;2023-05-01T12:36:52;5.60;;;1.20;;
69434;SDS011;56625;54.322;18.582;2023-05-01T12:39:21;5.10;;;1.40;;
69434;SDS011;56625;54.322;18.582;2023-05-01T12:41:50;5.90;;;1.40;;
69434;SDS011;56625;54.322;18.582;2023-05-01T12:44:22;6.30;;;1.40;;
69434;SDS011;56625;54.322;18.582;2023-05-01T12:47:01;5.70;;;1.30;;
69434;SDS011;56625;54.322;18.582;2023-05-01T12:49:35;5.60;;;1.60;;
69434;SDS011;56625;54.322;18.582;2023-05-01T12:52:05;5.40;;;1.40;;
69434;SDS011;56625;54.322;18.582;2023-05-01T12:54:36;3.80;;;1.20;;
69434;SDS011;56625;54.322;18.582;2023-05-01T12:57:13;6.50;;;1.70;;
69434;SDS011;56625;54.322;18.582;2023-05-01T12:59:44;5.40;;;1.60;;
69434;SDS011;56625;54.322;18.582;2023-05-01T13:02:17;6.90;;;1.60;;
69434;SDS011;56625;54.322;18.582;2023-05-01T13:04:45;6.20;;;1.30;;
69434;SDS011;56625;54.322;18.582;2023-05-01T13:07:24;9.60;;;1.90;;
69434;SDS011;56625;54.322;18.582;2023-05-01T13:09:53;3.80;;;0.90;;
69434;SDS011;56625;54.322;18.582;2023-05-01T13:12:25;6.20;;;1.70;;
69434;SDS011;56625;54.322;18.582;2023-05-01T13:14:57;7.60;;;1.80;;
69434;SDS011;56625;54.322;18.582;2023-05-01T13:17:29;6.90;;;2.00;;
69434;SDS011;56625;54.322;18.582;2023-05-01T13:20:03;5.90;;;1.70;;
69434;SDS011;56625;54.322;18.582;2023-05-01T13:22:36;6.60;;;1.70;;
69434;SDS011;56625;54.322;18.582;2023-05-01T13:25:15;4.50;;;1.40;;
69434;SDS011;56625;54.322;18.582;2023-05-01T13:27:55;4.80;;;1.50;;
69434;SDS011;56625;54.322;18.582;2023-05-01T13:30:31;8.70;;;2.30;;
69434;SDS011;56625;54.322;18.582;2023-05-01T13:33:00;7.30;;;1.70;;
69434;SDS011;56625;54.322;18.582;2023-05-01T13:35:31;6.40;;;2.10;;
69434;SDS011;56625;54.322;18.582;2023-05-01T13:38:01;7.20;;;1.60;;
69434;SDS011;56625;54.322;18.582;2023-05-01T13:40:32;7.40;;;2.00;;
69434;SDS011;56625;54.322;18.582;2023-05-01T13:43:01;5.50;;;1.40;;
69434;SDS011;56625;54.322;18.582;2023-05-01T13:45:29;7.10;;;1.70;;
69434;SDS011;56625;54.322;18.582;2023-05-01T13:47:57;6.00;;;1.50;;
69434;SDS011;56625;54.322;18.582;2023-05-01T13:50:25;6.70;;;1.60;;
69434;SDS011;56625;54.322;18.582;2023-05-01T13:52:54;6.00;;;1.70;;
69434;SDS011;56625;54.322;18.582;2023-05-01T13:55:23;6.00;;;1.70;;
69434;SDS011;56625;54.322;18.582;2023-05-01T13:57:52;6.70;;;1.50;;
69434;SDS011;56625;54.322;18.582;2023-05-01T14:00:20;7.10;;;1.80;;
69434;SDS011;56625;54.322;18.582;2023-05-01T14:02:49;5.10;;;1.40;;
69434;SDS011;56625;54.322;18.582;2023-05-01T14:05:25;9.70;;;1.40;;
69434;SDS011;56625;54.322;18.582;2023-05-01T14:07:57;6.70;;;1.40;;
69434;SDS011;56625;54.322;18.582;2023-05-01T14:10:28;7.10;;;1.50;;
69434;SDS011;56625;54.322;18.582;2023-05-01T14:12:57;7.30;;;1.40;;
69434;SDS011;56625;54.322;18.582;2023-05-01T14:15:26;5.60;;;1.60;;
69434;SDS011;56625;54.322;18.582;2023-05-01T14:17:56;5.50;;;1.10;;
69434;SDS011;56625;54.322;18.582;2023-05-01T14:20:25;4.80;;;1.10;;
69434;SDS011;56625;54.322;18.582;2023-05-01T14:22:53;5.00;;;1.70;;
69434;SDS011;56625;54.322;18.582;2023-05-01T14:25:27;5.80;;;1.50;;
69434;SDS011;56625;54.322;18.582;2023-05-01T14:28:05;6.50;;;1.50;;
69434;SDS011;56625;54.322;18.582;2023-05-01T14:30:37;5.00;;;1.50;;
69434;SDS011;56625;54.322;18.582;2023-05-01T14:33:11;6.20;;;1.40;;
69434;SDS011;56625;54.322;18.582;2023-05-01T14:35:48;7.30;;;1.70;;
69434;SDS011;56625;54.322;18.582;2023-05-01T14:38:19;6.00;;;1.50;;
69434;SDS011;56625;54.322;18.582;2023-05-01T14:40:48;4.50;;;1.50;;
69434;SDS011;56625;54.322;18.582;2023-05-01T14:43:18;4.50;;;1.40;;
69434;SDS011;56625;54.322;18.582;2023-05-01T14:45:49;5.20;;;1.50;;
69434;SDS011;56625;54.322;18.582;2023-05-01T14:48:23;7.80;;;1.40;;
69434;SDS011;56625;54.322;18.582;2023-05-01T14:50:52;8.40;;;1.50;;
69434;SDS011;56625;54.322;18.582;2023-05-01T14:53:21;6.00;;;1.60;;
69434;SDS011;56625;54.322;18.582;2023-05-01T14:55:50;6.20;;;1.20;;
69434;SDS011;56625;54.322;18.582;2023-05-01T14:58:18;5.40;;;1.30;;
69434;SDS011;56625;54.322;18.582;2023-05-01T15:00:47;5.80;;;1.40;;
69434;SDS011;56625;54.322;18.582;2023-05-01T15:03:14;5.30;;;1.50;;
69434;SDS011;56625;54.322;18.582;2023-05-01T15:05:43;10.10;;;1.80;;
69434;SDS011;56625;54.322;18.582;2023-05-01T15:08:13;8.30;;;2.00;;
69434;SDS011;56625;54.322;18.582;2023-05-01T15:10:41;5.20;;;1.30;;
69434;SDS011;56625;54.322;18.582;2023-05-01T15:13:11;6.40;;;1.50;;
69434;SDS011;56625;54.322;18.582;2023-05-01T15:15:39;6.60;;;1.90;;
69434;SDS011;56625;54.322;18.582;2023-05-01T15:18:07;10.50;;;2.10;;
69434;SDS011;56625;54.322;18.582;2023-05-01T15:20:36;8.00;;;2.20;;
69434;SDS011;56625;54.322;18.582;2023-05-01T15:23:05;7.90;;;1.40;;
69434;SDS011;56625;54.322;18.582;2023-05-01T15:25:33;7.00;;;1.30;;